sensor_id;sensor_type;location;lat;lon;timestamp;P1;durP1;ratioP1;P2;durP2;ratioP2
22318;SDS011;11327;52.334;9.506;2023-06-19T00:03:08;6.45;;;5.80;;
22318;SDS011;11327;52.334;9.506;2023-06-19T00:06:29;7.53;;;6.00;;
22318;SDS011;11327;52.334;9.506;2023-06-19T00:09:50;6.95;;;6.25;;
22318;SDS011;11327;52.334;9.506;2023-06-19T00:13:10;7.08;;;6.10;;
22318;SDS011;11327;52.334;9.506;2023-06-19T00:16:31;7.35;;;6.28;;
22318;SDS011;11327;52.334;9.506;2023-06-19T00:19:53;6.87;;;6.17;;
22318;SDS011;11327;52.334;9.506;2023-06-19T00:23:14;6.67;;;6.08;;
22318;SDS011;11327;52.334;9.506;2023-06-19T00:26:36;6.70;;;5.97;;
22318;SDS011;11327;52.334;9.506;2023-06-19T00:29:57;6.87;;;6.28;;
22318;SDS011;11327;52.334;9.506;2023-06-19T00:33:20;6.45;;;5.83;;
22318;SDS011;11327;52.334;9.506;2023-06-19T00:36:40;6.85;;;6.15;;
22318;SDS011;11327;52.334;9.506;2023-06-19T00:40:01;6.50;;;5.90;;
22318;SDS011;11327;52.334;9.506;2023-06-19T00:43:22;6.50;;;5.80;;
22318;SDS011;11327;52.334;9.506;2023-06-19T00:46:43;6.60;;;6.00;;
22318;SDS011;11327;52.334;9.506;2023-06-19T00:50:04;7.95;;;5.90;;
22318;SDS011;11327;52.334;9.506;2023-06-19T00:53:26;6.15;;;5.60;;
22318;SDS011;11327;52.334;9.506;2023-06-19T00:56:47;6.65;;;5.90;;
22318;SDS011;11327;52.334;9.506;2023-06-19T01:00:09;6.60;;;6.00;;
22318;SDS011;11327;52.334;9.506;2023-06-19T01:03:32;6.95;;;6.30;;
22318;SDS011;11327;52.334;9.506;2023-06-19T01:06:57;7.22;;;6.40;;
22318;SDS011;11327;52.334;9.506;2023-06-19T01:10:21;6.83;;;6.22;;
22318;SDS011;11327;52.334;9.506;2023-06-19T01:13:53;6.58;;;5.97;;
22318;SDS011;11327;52.334;9.506;2023-06-19T01:17:20;6.50;;;5.90;;
22318;SDS011;11327;52.334;9.506;2023-06-19T01:20:42;6.45;;;5.85;;
22318;SDS011;11327;52.334;9.506;2023-06-19T01:24:02;6.83;;;6.12;;
22318;SDS011;11327;52.334;9.506;2023-06-19T01:27:24;5.92;;;5.42;;
22318;SDS011;11327;52.334;9.506;2023-06-19T01:30:46;6.78;;;6.12;;
22318;SDS011;11327;52.334;9.506;2023-06-19T01:34:07;6.85;;;6.15;;
22318;SDS011;11327;52.334;9.506;2023-06-19T01:37:31;7.22;;;6.33;;
22318;SDS011;11327;52.334;9.506;2023-06-19T01:40:53;6.67;;;6.08;;
22318;SDS011;11327;52.334;9.506;2023-06-19T01:44:16;8.35;;;6.17;;
22318;SDS011;11327;52.334;9.506;2023-06-19T01:47:37;6.35;;;5.75;;
22318;SDS011;11327;52.334;9.506;2023-06-19T01:50:57;6.80;;;6.20;;
22318;SDS011;11327;52.334;9.506;2023-06-19T01:54:18;7.47;;;6.25;;
22318;SDS011;11327;52.334;9.506;2023-06-19T01:57:39;6.20;;;5.70;;
22318;SDS011;11327;52.334;9.506;2023-06-19T02:00:59;6.10;;;5.47;;
22318;SDS011;11327;52.334;9.506;2023-06-19T02:04:20;6.47;;;5.87;;
22318;SDS011;11327;52.334;9.506;2023-06-19T02:07:41;7.22;;;6.53;;
22318;SDS011;11327;52.334;9.506;2023-06-19T02:11:02;7.62;;;6.25;;
22318;SDS011;11327;52.334;9.506;2023-06-19T02:14:23;5.92;;;5.37;;
22318;SDS011;11327;52.334;9.506;2023-06-19T02:17:43;6.30;;;5.80;;
22318;SDS011;11327;52.334;9.506;2023-06-19T02:21:04;7.25;;;6.47;;
22318;SDS011;11327;52.334;9.506;2023-06-19T02:24:25;6.62;;;6.03;;
22318;SDS011;11327;52.334;9.506;2023-06-19T02:27:46;6.87;;;6.15;;
22318;SDS011;11327;52.334;9.506;2023-06-19T02:31:06;6.60;;;5.80;;
22318;SDS011;11327;52.334;9.506;2023-06-19T02:34:27;7.75;;;5.90;;
22318;SDS011;11327;52.334;9.506;2023-06-19T02:37:48;6.53;;;5.92;;
22318;SDS011;11327;52.334;9.506;2023-06-19T02:41:08;6.92;;;6.33;;
22318;SDS011;11327;52.334;9.506;2023-06-19T02:44:29;6.97;;;6.22;;
22318;SDS011;11327;52.334;9.506;2023-06-19T02:47:50;6.10;;;5.50;;
22318;SDS011;11327;52.334;9.506;2023-06-19T02:51:12;6.20;;;5.67;;
22318;SDS011;11327;52.334;9.506;2023-06-19T02:54:33;6.65;;;5.60;;
22318;SDS011;11327;52.334;9.506;2023-06-19T02:57:53;6.40;;;5.80;;
22318;SDS011;11327;52.334;9.506;2023-06-19T03:01:14;6.87;;;6.12;;
22318;SDS011;11327;52.334;9.506;2023-06-19T03:04:35;6.55;;;5.87;;
22318;SDS011;11327;52.334;9.506;2023-06-19T03:07:57;6.60;;;5.90;;
22318;SDS011;11327;52.334;9.506;2023-06-19T03:11:18;7.03;;;5.95;;
22318;SDS011;11327;52.334;9.506;2023-06-19T03:14:38;6.67;;;6.05;;
22318;SDS011;11327;52.334;9.506;2023-06-19T03:18:00;6.90;;;6.20;;
22318;SDS011;11327;52.334;9.506;2023-06-19T03:21:23;7.45;;;5.72;;
22318;SDS011;11327;52.334;9.506;2023-06-19T03:24:43;6.80;;;6.20;;
22318;SDS011;11327;52.334;9.506;2023-06-19T03:28:04;6.40;;;5.80;;
22318;SDS011;11327;52.334;9.506;2023-06-19T03:31:25;6.67;;;5.97;;
22318;SDS011;11327;52.334;9.506;2023-06-19T03:34:46;6.40;;;5.80;;
22318;SDS011;11327;52.334;9.506;2023-06-19T03:38:06;6.40;;;5.80;;
22318;SDS011;11327;52.334;9.506;2023-06-19T03:41:27;6.92;;;6.03;;
22318;SDS011;11327;52.334;9.506;2023-06-19T03:44:48;7.03;;;6.10;;
22318;SDS011;11327;52.334;9.506;2023-06-19T03:48:09;6.53;;;5.83;;
22318;SDS011;11327;52.334;9.506;2023-06-19T03:51:30;6.28;;;5.67;;
22318;SDS011;11327;52.334;9.506;2023-06-19T03:54:51;6.08;;;5.40;;
22318;SDS011;11327;52.334;9.506;2023-06-19T03:58:11;6.40;;;5.80;;
22318;SDS011;11327;52.334;9.506;2023-06-19T04:01:32;6.20;;;5.60;;
22318;SDS011;11327;52.334;9.506;2023-06-19T04:04:53;8.03;;;5.92;;
22318;SDS011;11327;52.334;9.506;2023-06-19T04:08:14;6.60;;;6.00;;
22318;SDS011;11327;52.334;9.506;2023-06-19T04:11:36;6.53;;;5.83;;
22318;SDS011;11327;52.334;9.506;2023-06-19T04:14:57;6.72;;;6.00;;
22318;SDS011;11327;52.334;9.506;2023-06-19T04:18:17;6.92;;;6.20;;
22318;SDS011;11327;52.334;9.506;2023-06-19T04:21:38;7.17;;;6.47;;
22318;SDS011;11327;52.334;9.506;2023-06-19T04:24:59;7.70;;;6.20;;
22318;SDS011;11327;52.334;9.506;2023-06-19T04:28:19;7.05;;;6.40;;
22318;SDS011;11327;52.334;9.506;2023-06-19T04:31:40;6.97;;;6.28;;
22318;SDS011;11327;52.334;9.506;2023-06-19T04:35:01;6.47;;;5.87;;
22318;SDS011;11327;52.334;9.506;2023-06-19T04:38:22;7.37;;;6.40;;
22318;SDS011;11327;52.334;9.506;2023-06-19T04:41:45;6.85;;;6.15;;
22318;SDS011;11327;52.334;9.506;2023-06-19T04:45:06;7.83;;;6.37;;
22318;SDS011;11327;52.334;9.506;2023-06-19T04:48:27;6.85;;;6.25;;
22318;SDS011;11327;52.334;9.506;2023-06-19T04:51:49;7.97;;;7.17;;
22318;SDS011;11327;52.334;9.506;2023-06-19T04:55:10;7.33;;;6.62;;
22318;SDS011;11327;52.334;9.506;2023-06-19T04:58:31;8.33;;;7.53;;
22318;SDS011;11327;52.334;9.506;2023-06-19T05:01:54;8.20;;;7.37;;
22318;SDS011;11327;52.334;9.506;2023-06-19T05:05:15;8.00;;;7.20;;
22318;SDS011;11327;52.334;9.506;2023-06-19T05:08:36;8.13;;;7.42;;
22318;SDS011;11327;52.334;9.506;2023-06-19T05:11:57;9.03;;;7.87;;
22318;SDS011;11327;52.334;9.506;2023-06-19T05:15:18;7.97;;;7.28;;
22318;SDS011;11327;52.334;9.506;2023-06-19T05:18:39;9.28;;;8.38;;
22318;SDS011;11327;52.334;9.506;2023-06-19T05:21:59;8.75;;;7.95;;
22318;SDS011;11327;52.334;9.506;2023-06-19T05:25:20;8.75;;;7.95;;
22318;SDS011;11327;52.334;9.506;2023-06-19T05:28:41;8.53;;;7.70;;
22318;SDS011;11327;52.334;9.506;2023-06-19T05:32:02;8.25;;;7.45;;
22318;SDS011;11327;52.334;9.506;2023-06-19T05:35:23;8.50;;;7.70;;
22318;SDS011;11327;52.334;9.506;2023-06-19T05:38:44;8.88;;;7.80;;
22318;SDS011;11327;52.334;9.506;2023-06-19T05:42:04;8.90;;;8.00;;
22318;SDS011;11327;52.334;9.506;2023-06-19T05:45:26;8.00;;;7.28;;
22318;SDS011;11327;52.334;9.506;2023-06-19T05:48:47;10.32;;;8.60;;
22318;SDS011;11327;52.334;9.506;2023-06-19T05:52:08;8.65;;;7.85;;
22318;SDS011;11327;52.334;9.506;2023-06-19T05:55:29;8.30;;;7.50;;
22318;SDS011;11327;52.334;9.506;2023-06-19T05:58:50;8.15;;;7.45;;
22318;SDS011;11327;52.334;9.506;2023-06-19T06:02:10;8.65;;;7.83;;
22318;SDS011;11327;52.334;9.506;2023-06-19T06:05:31;8.35;;;7.55;;
22318;SDS011;11327;52.334;9.506;2023-06-19T06:08:52;7.65;;;6.92;;
22318;SDS011;11327;52.334;9.506;2023-06-19T06:12:15;8.45;;;7.65;;
22318;SDS011;11327;52.334;9.506;2023-06-19T06:15:35;7.87;;;7.08;;
22318;SDS011;11327;52.334;9.506;2023-06-19T06:18:56;8.28;;;7.53;;
22318;SDS011;11327;52.334;9.506;2023-06-19T06:22:17;8.98;;;8.08;;
22318;SDS011;11327;52.334;9.506;2023-06-19T06:25:38;7.95;;;7.15;;
22318;SDS011;11327;52.334;9.506;2023-06-19T06:28:59;8.85;;;8.05;;
22318;SDS011;11327;52.334;9.506;2023-06-19T06:32:20;8.83;;;7.92;;
22318;SDS011;11327;52.334;9.506;2023-06-19T06:35:41;8.80;;;7.90;;
22318;SDS011;11327;52.334;9.506;2023-06-19T06:39:02;8.75;;;7.85;;
22318;SDS011;11327;52.334;9.506;2023-06-19T06:42:23;9.15;;;8.25;;
22318;SDS011;11327;52.334;9.506;2023-06-19T06:45:43;8.50;;;7.70;;
22318;SDS011;11327;52.334;9.506;2023-06-19T06:49:04;9.35;;;7.97;;
22318;SDS011;11327;52.334;9.506;2023-06-19T06:52:25;8.80;;;7.90;;
22318;SDS011;11327;52.334;9.506;2023-06-19T06:55:45;9.20;;;8.13;;
22318;SDS011;11327;52.334;9.506;2023-06-19T06:59:06;8.45;;;7.65;;
22318;SDS011;11327;52.334;9.506;2023-06-19T07:02:27;9.00;;;8.10;;
22318;SDS011;11327;52.334;9.506;2023-06-19T07:05:48;8.80;;;8.00;;
22318;SDS011;11327;52.334;9.506;2023-06-19T07:09:09;8.40;;;7.60;;
22318;SDS011;11327;52.334;9.506;2023-06-19T07:12:30;8.73;;;7.80;;
22318;SDS011;11327;52.334;9.506;2023-06-19T07:15:51;8.13;;;7.33;;
22318;SDS011;11327;52.334;9.506;2023-06-19T07:19:12;9.20;;;7.95;;
22318;SDS011;11327;52.334;9.506;2023-06-19T07:22:34;10.43;;;8.25;;
22318;SDS011;11327;52.334;9.506;2023-06-19T07:25:54;9.40;;;8.05;;
22318;SDS011;11327;52.334;9.506;2023-06-19T07:29:15;9.18;;;8.28;;
22318;SDS011;11327;52.334;9.506;2023-06-19T07:32:36;8.98;;;8.08;;
22318;SDS011;11327;52.334;9.506;2023-06-19T07:35:57;8.70;;;7.50;;
22318;SDS011;11327;52.334;9.506;2023-06-19T07:39:18;9.08;;;8.10;;
22318;SDS011;11327;52.334;9.506;2023-06-19T07:42:39;8.88;;;8.08;;
22318;SDS011;11327;52.334;9.506;2023-06-19T07:46:00;8.85;;;7.95;;
22318;SDS011;11327;52.334;9.506;2023-06-19T07:49:20;8.73;;;7.70;;
22318;SDS011;11327;52.334;9.506;2023-06-19T07:52:41;9.18;;;7.65;;
22318;SDS011;11327;52.334;9.506;2023-06-19T07:56:02;7.80;;;7.00;;
22318;SDS011;11327;52.334;9.506;2023-06-19T07:59:23;7.17;;;6.47;;
22318;SDS011;11327;52.334;9.506;2023-06-19T08:02:44;6.22;;;5.62;;
22318;SDS011;11327;52.334;9.506;2023-06-19T08:06:04;6.50;;;5.85;;
22318;SDS011;11327;52.334;9.506;2023-06-19T08:09:25;6.72;;;6.12;;
22318;SDS011;11327;52.334;9.506;2023-06-19T08:12:46;6.20;;;5.60;;
22318;SDS011;11327;52.334;9.506;2023-06-19T08:16:07;7.83;;;5.85;;
22318;SDS011;11327;52.334;9.506;2023-06-19T08:19:27;6.90;;;6.17;;
22318;SDS011;11327;52.334;9.506;2023-06-19T08:22:48;6.78;;;6.03;;
22318;SDS011;11327;52.334;9.506;2023-06-19T08:26:09;6.60;;;6.00;;
22318;SDS011;11327;52.334;9.506;2023-06-19T08:29:30;7.28;;;6.50;;
22318;SDS011;11327;52.334;9.506;2023-06-19T08:32:51;7.20;;;6.50;;
22318;SDS011;11327;52.334;9.506;2023-06-19T08:39:53;6.70;;;6.10;;
22318;SDS011;11327;52.334;9.506;2023-06-19T08:43:15;6.75;;;6.15;;
22318;SDS011;11327;52.334;9.506;2023-06-19T08:46:36;6.30;;;5.70;;
22318;SDS011;11327;52.334;9.506;2023-06-19T08:49:58;7.12;;;5.97;;
22318;SDS011;11327;52.334;9.506;2023-06-19T08:53:19;6.62;;;5.75;;
22318;SDS011;11327;52.334;9.506;2023-06-19T08:56:39;6.08;;;5.47;;
22318;SDS011;11327;52.334;9.506;2023-06-19T09:00:00;6.12;;;5.53;;
22318;SDS011;11327;52.334;9.506;2023-06-19T09:03:22;6.47;;;5.45;;
22318;SDS011;11327;52.334;9.506;2023-06-19T09:06:49;6.58;;;5.53;;
22318;SDS011;11327;52.334;9.506;2023-06-19T09:10:19;6.28;;;5.78;;
22318;SDS011;11327;52.334;9.506;2023-06-19T09:13:40;5.85;;;5.25;;
22318;SDS011;11327;52.334;9.506;2023-06-19T09:17:01;8.23;;;6.05;;
22318;SDS011;11327;52.334;9.506;2023-06-19T09:20:26;5.90;;;5.40;;
22318;SDS011;11327;52.334;9.506;2023-06-19T09:23:48;6.03;;;5.03;;
22318;SDS011;11327;52.334;9.506;2023-06-19T09:27:15;5.97;;;5.35;;
22318;SDS011;11327;52.334;9.506;2023-06-19T09:30:38;5.95;;;5.45;;
22318;SDS011;11327;52.334;9.506;2023-06-19T09:34:01;6.28;;;5.20;;
22318;SDS011;11327;52.334;9.506;2023-06-19T09:37:23;7.45;;;5.20;;
22318;SDS011;11327;52.334;9.506;2023-06-19T09:40:45;6.25;;;5.30;;
22318;SDS011;11327;52.334;9.506;2023-06-19T09:44:08;5.17;;;4.67;;
22318;SDS011;11327;52.334;9.506;2023-06-19T09:47:36;5.42;;;4.60;;
22318;SDS011;11327;52.334;9.506;2023-06-19T09:51:18;4.72;;;4.22;;
22318;SDS011;11327;52.334;9.506;2023-06-19T09:54:40;5.05;;;4.62;;
22318;SDS011;11327;52.334;9.506;2023-06-19T09:58:04;4.47;;;4.08;;
22318;SDS011;11327;52.334;9.506;2023-06-19T10:01:29;9.98;;;4.35;;
22318;SDS011;11327;52.334;9.506;2023-06-19T10:04:53;4.70;;;3.80;;
22318;SDS011;11327;52.334;9.506;2023-06-19T10:08:26;4.30;;;3.62;;
22318;SDS011;11327;52.334;9.506;2023-06-19T10:11:55;5.28;;;3.92;;
22318;SDS011;11327;52.334;9.506;2023-06-19T10:15:20;4.40;;;3.58;;
22318;SDS011;11327;52.334;9.506;2023-06-19T10:18:45;4.00;;;3.70;;
22318;SDS011;11327;52.334;9.506;2023-06-19T10:22:06;4.65;;;3.42;;
22318;SDS011;11327;52.334;9.506;2023-06-19T10:25:29;4.08;;;3.55;;
22318;SDS011;11327;52.334;9.506;2023-06-19T10:28:51;3.77;;;3.10;;
22318;SDS011;11327;52.334;9.506;2023-06-19T10:32:12;3.12;;;2.83;;
22318;SDS011;11327;52.334;9.506;2023-06-19T10:35:39;3.25;;;2.95;;
22318;SDS011;11327;52.334;9.506;2023-06-19T10:39:01;3.40;;;2.87;;
22318;SDS011;11327;52.334;9.506;2023-06-19T10:42:21;4.70;;;3.30;;
22318;SDS011;11327;52.334;9.506;2023-06-19T10:45:42;4.47;;;2.92;;
22318;SDS011;11327;52.334;9.506;2023-06-19T10:49:03;4.03;;;2.77;;
22318;SDS011;11327;52.334;9.506;2023-06-19T10:52:25;3.15;;;2.85;;
22318;SDS011;11327;52.334;9.506;2023-06-19T10:55:54;2.77;;;2.50;;
22318;SDS011;11327;52.334;9.506;2023-06-19T10:59:19;3.17;;;2.65;;
22318;SDS011;11327;52.334;9.506;2023-06-19T11:02:40;3.85;;;2.72;;
22318;SDS011;11327;52.334;9.506;2023-06-19T11:06:03;3.37;;;2.40;;
22318;SDS011;11327;52.334;9.506;2023-06-19T11:09:23;3.20;;;2.60;;
22318;SDS011;11327;52.334;9.506;2023-06-19T11:12:46;4.87;;;2.95;;
22318;SDS011;11327;52.334;9.506;2023-06-19T11:16:06;4.42;;;3.10;;
22318;SDS011;11327;52.334;9.506;2023-06-19T11:19:30;3.40;;;2.98;;
22318;SDS011;11327;52.334;9.506;2023-06-19T11:22:54;4.20;;;3.60;;
22318;SDS011;11327;52.334;9.506;2023-06-19T11:26:18;3.30;;;3.00;;
22318;SDS011;11327;52.334;9.506;2023-06-19T11:29:39;4.03;;;3.47;;
22318;SDS011;11327;52.334;9.506;2023-06-19T11:33:01;4.87;;;4.33;;
22318;SDS011;11327;52.334;9.506;2023-06-19T11:36:23;5.97;;;4.45;;
22318;SDS011;11327;52.334;9.506;2023-06-19T11:39:45;4.60;;;4.20;;
22318;SDS011;11327;52.334;9.506;2023-06-19T11:43:06;4.80;;;4.40;;
22318;SDS011;11327;52.334;9.506;2023-06-19T11:46:29;4.10;;;3.75;;
22318;SDS011;11327;52.334;9.506;2023-06-19T11:49:51;4.83;;;3.80;;
22318;SDS011;11327;52.334;9.506;2023-06-19T11:53:13;4.65;;;4.10;;
22318;SDS011;11327;52.334;9.506;2023-06-19T11:56:34;5.15;;;4.00;;
22318;SDS011;11327;52.334;9.506;2023-06-19T11:59:55;4.55;;;4.17;;
22318;SDS011;11327;52.334;9.506;2023-06-19T12:03:16;4.60;;;4.20;;
22318;SDS011;11327;52.334;9.506;2023-06-19T12:06:37;4.58;;;3.95;;
22318;SDS011;11327;52.334;9.506;2023-06-19T12:09:58;4.75;;;4.35;;
22318;SDS011;11327;52.334;9.506;2023-06-19T12:13:18;5.30;;;4.90;;
22318;SDS011;11327;52.334;9.506;2023-06-19T12:16:39;4.75;;;4.20;;
22318;SDS011;11327;52.334;9.506;2023-06-19T12:20:00;4.37;;;3.92;;
22318;SDS011;11327;52.334;9.506;2023-06-19T12:23:24;4.05;;;3.75;;
22318;SDS011;11327;52.334;9.506;2023-06-19T12:26:45;4.80;;;4.40;;
22318;SDS011;11327;52.334;9.506;2023-06-19T12:30:06;4.92;;;4.28;;
22318;SDS011;11327;52.334;9.506;2023-06-19T12:33:28;5.40;;;4.87;;
22318;SDS011;11327;52.334;9.506;2023-06-19T12:36:51;5.35;;;4.92;;
22318;SDS011;11327;52.334;9.506;2023-06-19T12:40:12;5.53;;;5.08;;
22318;SDS011;11327;52.334;9.506;2023-06-19T12:43:32;5.05;;;4.65;;
22318;SDS011;11327;52.334;9.506;2023-06-19T12:46:53;5.30;;;4.80;;
22318;SDS011;11327;52.334;9.506;2023-06-19T12:50:14;5.30;;;4.80;;
22318;SDS011;11327;52.334;9.506;2023-06-19T12:53:35;4.80;;;3.67;;
22318;SDS011;11327;52.334;9.506;2023-06-19T12:56:55;4.17;;;3.87;;
22318;SDS011;11327;52.334;9.506;2023-06-19T13:00:16;4.28;;;3.98;;
22318;SDS011;11327;52.334;9.506;2023-06-19T13:03:37;4.10;;;3.80;;
22318;SDS011;11327;52.334;9.506;2023-06-19T13:06:58;4.45;;;3.72;;
22318;SDS011;11327;52.334;9.506;2023-06-19T13:10:19;4.45;;;4.05;;
22318;SDS011;11327;52.334;9.506;2023-06-19T13:13:39;5.53;;;4.33;;
22318;SDS011;11327;52.334;9.506;2023-06-19T13:17:00;5.05;;;4.65;;
22318;SDS011;11327;52.334;9.506;2023-06-19T13:20:21;4.53;;;4.15;;
22318;SDS011;11327;52.334;9.506;2023-06-19T13:23:42;4.37;;;3.98;;
22318;SDS011;11327;52.334;9.506;2023-06-19T13:27:03;4.80;;;4.40;;
22318;SDS011;11327;52.334;9.506;2023-06-19T13:30:24;4.45;;;4.08;;
22318;SDS011;11327;52.334;9.506;2023-06-19T13:33:44;4.80;;;4.40;;
22318;SDS011;11327;52.334;9.506;2023-06-19T13:37:05;4.17;;;3.87;;
22318;SDS011;11327;52.334;9.506;2023-06-19T13:40:26;4.00;;;3.67;;
22318;SDS011;11327;52.334;9.506;2023-06-19T13:43:47;4.05;;;3.75;;
22318;SDS011;11327;52.334;9.506;2023-06-19T13:47:07;4.40;;;4.00;;
22318;SDS011;11327;52.334;9.506;2023-06-19T13:50:28;5.03;;;4.30;;
22318;SDS011;11327;52.334;9.506;2023-06-19T13:53:49;4.40;;;4.00;;
22318;SDS011;11327;52.334;9.506;2023-06-19T13:57:11;4.25;;;3.77;;
22318;SDS011;11327;52.334;9.506;2023-06-19T14:00:32;4.50;;;4.10;;
22318;SDS011;11327;52.334;9.506;2023-06-19T14:03:52;4.25;;;3.85;;
22318;SDS011;11327;52.334;9.506;2023-06-19T14:07:13;4.70;;;4.30;;
22318;SDS011;11327;52.334;9.506;2023-06-19T14:10:34;4.35;;;4.05;;
22318;SDS011;11327;52.334;9.506;2023-06-19T14:13:55;4.62;;;4.08;;
22318;SDS011;11327;52.334;9.506;2023-06-19T14:17:16;4.35;;;4.05;;
22318;SDS011;11327;52.334;9.506;2023-06-19T14:20:37;4.37;;;3.90;;
22318;SDS011;11327;52.334;9.506;2023-06-19T14:23:58;4.40;;;4.00;;
22318;SDS011;11327;52.334;9.506;2023-06-19T14:27:19;4.50;;;3.80;;
22318;SDS011;11327;52.334;9.506;2023-06-19T14:30:40;4.53;;;4.10;;
22318;SDS011;11327;52.334;9.506;2023-06-19T14:34:00;4.67;;;4.28;;
22318;SDS011;11327;52.334;9.506;2023-06-19T14:37:21;4.87;;;4.37;;
22318;SDS011;11327;52.334;9.506;2023-06-19T14:40:43;4.78;;;4.37;;
22318;SDS011;11327;52.334;9.506;2023-06-19T14:44:04;4.75;;;4.35;;
22318;SDS011;11327;52.334;9.506;2023-06-19T14:47:26;4.72;;;4.33;;
22318;SDS011;11327;52.334;9.506;2023-06-19T14:50:47;4.83;;;4.42;;
22318;SDS011;11327;52.334;9.506;2023-06-19T14:54:08;4.80;;;4.15;;
22318;SDS011;11327;52.334;9.506;2023-06-19T14:57:28;5.17;;;4.70;;
22318;SDS011;11327;52.334;9.506;2023-06-19T15:00:49;4.58;;;4.20;;
22318;SDS011;11327;52.334;9.506;2023-06-19T15:04:10;5.40;;;4.90;;
22318;SDS011;11327;52.334;9.506;2023-06-19T15:07:31;4.55;;;4.12;;
22318;SDS011;11327;52.334;9.506;2023-06-19T15:10:52;4.92;;;4.47;;
22318;SDS011;11327;52.334;9.506;2023-06-19T15:14:12;4.80;;;4.35;;
22318;SDS011;11327;52.334;9.506;2023-06-19T15:17:33;5.60;;;5.20;;
22318;SDS011;11327;52.334;9.506;2023-06-19T15:20:55;4.72;;;4.22;;
22318;SDS011;11327;52.334;9.506;2023-06-19T15:24:15;5.05;;;4.50;;
22318;SDS011;11327;52.334;9.506;2023-06-19T15:27:36;5.12;;;4.60;;
22318;SDS011;11327;52.334;9.506;2023-06-19T15:30:57;4.40;;;4.00;;
22318;SDS011;11327;52.334;9.506;2023-06-19T15:34:18;4.30;;;3.90;;
22318;SDS011;11327;52.334;9.506;2023-06-19T15:37:38;4.42;;;4.03;;
22318;SDS011;11327;52.334;9.506;2023-06-19T15:40:59;4.90;;;4.50;;
22318;SDS011;11327;52.334;9.506;2023-06-19T15:44:20;6.65;;;6.12;;
22318;SDS011;11327;52.334;9.506;2023-06-19T15:47:41;5.00;;;4.30;;
22318;SDS011;11327;52.334;9.506;2023-06-19T15:51:02;4.00;;;3.60;;
22318;SDS011;11327;52.334;9.506;2023-06-19T15:54:22;4.78;;;3.92;;
22318;SDS011;11327;52.334;9.506;2023-06-19T15:57:43;4.10;;;3.60;;
22318;SDS011;11327;52.334;9.506;2023-06-19T16:01:04;4.30;;;3.90;;
22318;SDS011;11327;52.334;9.506;2023-06-19T16:04:25;4.00;;;3.62;;
22318;SDS011;11327;52.334;9.506;2023-06-19T16:07:45;6.15;;;4.22;;
22318;SDS011;11327;52.334;9.506;2023-06-19T16:11:06;4.25;;;3.90;;
22318;SDS011;11327;52.334;9.506;2023-06-19T16:14:27;4.33;;;3.92;;
22318;SDS011;11327;52.334;9.506;2023-06-19T16:17:47;4.30;;;3.90;;
22318;SDS011;11327;52.334;9.506;2023-06-19T16:21:08;3.75;;;3.45;;
22318;SDS011;11327;52.334;9.506;2023-06-19T16:24:29;4.35;;;3.95;;
22318;SDS011;11327;52.334;9.506;2023-06-19T16:27:50;4.20;;;3.80;;
22318;SDS011;11327;52.334;9.506;2023-06-19T16:31:11;5.20;;;3.87;;
22318;SDS011;11327;52.334;9.506;2023-06-19T16:34:32;3.77;;;3.47;;
22318;SDS011;11327;52.334;9.506;2023-06-19T16:37:52;5.60;;;3.35;;
22318;SDS011;11327;52.334;9.506;2023-06-19T16:41:16;4.95;;;3.65;;
22318;SDS011;11327;52.334;9.506;2023-06-19T16:44:37;3.70;;;3.40;;
22318;SDS011;11327;52.334;9.506;2023-06-19T16:47:58;3.33;;;3.00;;
22318;SDS011;11327;52.334;9.506;2023-06-19T16:51:19;3.55;;;3.20;;
22318;SDS011;11327;52.334;9.506;2023-06-19T16:54:40;3.67;;;3.37;;
22318;SDS011;11327;52.334;9.506;2023-06-19T16:58:01;3.67;;;3.37;;
22318;SDS011;11327;52.334;9.506;2023-06-19T17:01:22;4.92;;;3.50;;
22318;SDS011;11327;52.334;9.506;2023-06-19T17:04:43;4.12;;;3.70;;
22318;SDS011;11327;52.334;9.506;2023-06-19T17:08:04;3.67;;;3.30;;
22318;SDS011;11327;52.334;9.506;2023-06-19T17:11:24;3.60;;;3.25;;
22318;SDS011;11327;52.334;9.506;2023-06-19T17:14:46;3.42;;;3.10;;
22318;SDS011;11327;52.334;9.506;2023-06-19T17:18:07;4.72;;;3.37;;
22318;SDS011;11327;52.334;9.506;2023-06-19T17:21:28;3.87;;;3.20;;
22318;SDS011;11327;52.334;9.506;2023-06-19T17:24:49;3.87;;;3.40;;
22318;SDS011;11327;52.334;9.506;2023-06-19T17:28:09;5.83;;;3.50;;
22318;SDS011;11327;52.334;9.506;2023-06-19T17:31:30;5.70;;;3.60;;
22318;SDS011;11327;52.334;9.506;2023-06-19T17:34:51;3.90;;;3.50;;
22318;SDS011;11327;52.334;9.506;2023-06-19T17:38:11;4.60;;;3.95;;
22318;SDS011;11327;52.334;9.506;2023-06-19T17:41:32;4.12;;;3.75;;
22318;SDS011;11327;52.334;9.506;2023-06-19T17:44:54;4.15;;;3.47;;
22318;SDS011;11327;52.334;9.506;2023-06-19T17:48:14;4.08;;;3.70;;
22318;SDS011;11327;52.334;9.506;2023-06-19T17:51:35;23.38;;;4.70;;
22318;SDS011;11327;52.334;9.506;2023-06-19T17:54:56;4.75;;;3.12;;
22318;SDS011;11327;52.334;9.506;2023-06-19T17:58:17;3.80;;;3.40;;
22318;SDS011;11327;52.334;9.506;2023-06-19T18:01:37;4.45;;;3.40;;
22318;SDS011;11327;52.334;9.506;2023-06-19T18:04:58;3.87;;;3.37;;
22318;SDS011;11327;52.334;9.506;2023-06-19T18:08:19;4.25;;;3.20;;
22318;SDS011;11327;52.334;9.506;2023-06-19T18:11:40;4.08;;;3.60;;
22318;SDS011;11327;52.334;9.506;2023-06-19T18:15:01;3.52;;;3.12;;
22318;SDS011;11327;52.334;9.506;2023-06-19T18:18:22;4.42;;;3.37;;
22318;SDS011;11327;52.334;9.506;2023-06-19T18:21:43;3.65;;;3.35;;
22318;SDS011;11327;52.334;9.506;2023-06-19T18:25:04;3.77;;;3.30;;
22318;SDS011;11327;52.334;9.506;2023-06-19T18:28:25;4.25;;;3.60;;
22318;SDS011;11327;52.334;9.506;2023-06-19T18:31:46;3.22;;;2.98;;
22318;SDS011;11327;52.334;9.506;2023-06-19T18:35:08;3.90;;;3.50;;
22318;SDS011;11327;52.334;9.506;2023-06-19T18:38:28;4.15;;;3.50;;
22318;SDS011;11327;52.334;9.506;2023-06-19T18:41:49;3.52;;;3.20;;
22318;SDS011;11327;52.334;9.506;2023-06-19T18:45:10;4.22;;;3.60;;
22318;SDS011;11327;52.334;9.506;2023-06-19T18:48:30;4.42;;;3.65;;
22318;SDS011;11327;52.334;9.506;2023-06-19T18:51:51;4.22;;;3.20;;
22318;SDS011;11327;52.334;9.506;2023-06-19T18:55:12;3.85;;;3.42;;
22318;SDS011;11327;52.334;9.506;2023-06-19T18:58:33;3.92;;;3.52;;
22318;SDS011;11327;52.334;9.506;2023-06-19T19:01:54;3.83;;;3.42;;
22318;SDS011;11327;52.334;9.506;2023-06-19T19:05:14;4.30;;;3.60;;
22318;SDS011;11327;52.334;9.506;2023-06-19T19:08:35;4.80;;;3.25;;
22318;SDS011;11327;52.334;9.506;2023-06-19T19:11:56;3.80;;;3.50;;
22318;SDS011;11327;52.334;9.506;2023-06-19T19:15:17;5.78;;;5.17;;
22318;SDS011;11327;52.334;9.506;2023-06-19T19:18:37;6.97;;;5.40;;
22318;SDS011;11327;52.334;9.506;2023-06-19T19:21:59;6.47;;;5.15;;
22318;SDS011;11327;52.334;9.506;2023-06-19T19:25:19;5.10;;;4.22;;
22318;SDS011;11327;52.334;9.506;2023-06-19T19:28:40;4.50;;;4.10;;
22318;SDS011;11327;52.334;9.506;2023-06-19T19:32:01;4.00;;;3.60;;
22318;SDS011;11327;52.334;9.506;2023-06-19T19:35:22;4.17;;;3.77;;
22318;SDS011;11327;52.334;9.506;2023-06-19T19:38:42;3.90;;;3.60;;
22318;SDS011;11327;52.334;9.506;2023-06-19T19:42:03;4.10;;;3.80;;
22318;SDS011;11327;52.334;9.506;2023-06-19T19:45:24;5.17;;;4.60;;
22318;SDS011;11327;52.334;9.506;2023-06-19T19:48:45;4.22;;;3.83;;
22318;SDS011;11327;52.334;9.506;2023-06-19T19:52:06;5.22;;;4.72;;
22318;SDS011;11327;52.334;9.506;2023-06-19T19:55:28;6.17;;;5.30;;
22318;SDS011;11327;52.334;9.506;2023-06-19T19:58:48;4.70;;;4.30;;
22318;SDS011;11327;52.334;9.506;2023-06-19T20:02:09;4.37;;;3.98;;
22318;SDS011;11327;52.334;9.506;2023-06-19T20:05:30;4.72;;;4.30;;
22318;SDS011;11327;52.334;9.506;2023-06-19T20:08:51;4.72;;;4.22;;
22318;SDS011;11327;52.334;9.506;2023-06-19T20:12:12;4.28;;;3.98;;
22318;SDS011;11327;52.334;9.506;2023-06-19T20:15:32;4.30;;;3.90;;
22318;SDS011;11327;52.334;9.506;2023-06-19T20:18:53;4.70;;;4.30;;